Time;durP1;ratioP1;P1;durP2;ratioP2;P2;SDS_P1;SDS_P2;PMS_P1;PMS_P2;Temp;Humidity;BMP_temperature;BMP_pressure;BME280_temperature;BME280_humidity;BME280_pressure;Samples;Min_cycle;Max_cycle;Signal;HPM_P1;HPM_P2
2024/01/08 00:01:50;;;;;;;6.15;3.65;;;;;;;;;;4928943;29;20086;-70
2024/01/08 00:04:17;;;;;;;7.35;3.58;;;;;;;;;;4929253;29;20059;-70
2024/01/08 00:06:43;;;;;;;6.25;4.32;;;;;;;;;;4931414;29;20097;-70
2024/01/08 00:09:09;;;;;;;5.53;3.47;;;;;;;;;;4929726;29;20047;-70
2024/01/08 00:11:35;;;;;;;8.48;3.53;;;;;;;;;;4929714;28;20039;-70
2024/01/08 00:14:01;;;;;;;5.88;4.00;;;;;;;;;;4954890;28;20047;-69
2024/01/08 00:16:27;;;;;;;5.85;3.50;;;;;;;;;;4930738;28;21269;-70
2024/01/08 00:18:53;;;;;;;7.32;3.83;;;;;;;;;;4927177;29;20134;-70
2024/01/08 00:21:19;;;;;;;8.05;4.15;;;;;;;;;;4927277;29;20051;-70
2024/01/08 00:23:45;;;;;;;6.63;4.10;;;;;;;;;;4939905;29;20042;-70
2024/01/08 00:26:11;;;;;;;12.60;4.57;;;;;;;;;;4922097;29;20709;-70
2024/01/08 00:28:37;;;;;;;6.68;3.83;;;;;;;;;;4923155;29;20098;-70
2024/01/08 00:31:03;;;;;;;5.25;3.72;;;;;;;;;;4923994;29;20051;-70
2024/01/08 00:33:29;;;;;;;7.93;3.53;;;;;;;;;;4942655;29;20149;-70
2024/01/08 00:35:55;;;;;;;7.05;4.60;;;;;;;;;;4923622;29;20137;-70
2024/01/08 00:38:22;;;;;;;6.75;4.20;;;;;;;;;;4942783;29;20183;-70
2024/01/08 00:40:48;;;;;;;6.30;3.83;;;;;;;;;;4926380;29;20043;-70
2024/01/08 00:43:14;;;;;;;6.63;4.03;;;;;;;;;;4933316;29;20063;-70
2024/01/08 00:45:40;;;;;;;7.40;4.18;;;;;;;;;;4918797;29;20054;-70
2024/01/08 00:48:06;;;;;;;7.07;4.03;;;;;;;;;;4914939;29;20066;-70
2024/01/08 00:50:32;;;;;;;6.10;3.92;;;;;;;;;;4920075;29;20043;-70
2024/01/08 00:52:58;;;;;;;6.40;3.65;;;;;;;;;;4919085;29;20114;-70
2024/01/08 00:55:24;;;;;;;5.72;3.80;;;;;;;;;;4925312;29;20051;-70
2024/01/08 00:57:50;;;;;;;6.35;4.00;;;;;;;;;;4924233;29;20039;-70
2024/01/08 01:00:16;;;;;;;8.23;4.10;;;;;;;;;;4924912;29;20133;-70
2024/01/08 01:02:42;;;;;;;6.85;4.00;;;;;;;;;;4943502;29;20043;-70
2024/01/08 01:05:09;;;;;;;7.03;4.10;;;;;;;;;;4924689;29;20058;-70
2024/01/08 01:07:36;;;;;;;7.28;3.65;;;;;;;;;;4925849;29;20051;-70
2024/01/08 01:10:02;;;;;;;5.20;3.58;;;;;;;;;;4923515;29;20048;-70
2024/01/08 01:12:28;;;;;;;10.43;3.88;;;;;;;;;;4926358;29;20059;-70
2024/01/08 01:14:55;;;;;;;5.47;3.67;;;;;;;;;;4921742;29;20043;-70
2024/01/08 01:17:21;;;;;;;6.97;4.05;;;;;;;;;;4924955;29;20118;-70
2024/01/08 01:19:47;;;;;;;6.63;4.03;;;;;;;;;;4944687;29;20163;-70
2024/01/08 01:22:13;;;;;;;5.97;3.60;;;;;;;;;;4925984;29;20047;-70
2024/01/08 01:24:40;;;;;;;7.88;4.45;;;;;;;;;;4928450;29;20046;-69
2024/01/08 01:27:05;;;;;;;7.70;4.13;;;;;;;;;;4929076;29;21302;-70
2024/01/08 01:29:31;;;;;;;6.80;3.95;;;;;;;;;;4926663;29;20040;-70
2024/01/08 01:31:57;;;;;;;5.68;3.80;;;;;;;;;;4921688;29;20055;-70
2024/01/08 01:34:23;;;;;;;6.72;4.18;;;;;;;;;;4923902;29;20805;-70
2024/01/08 01:36:49;;;;;;;5.38;3.97;;;;;;;;;;4930174;29;20046;-70
2024/01/08 01:39:16;;;;;;;6.93;3.65;;;;;;;;;;4924627;29;20098;-70
2024/01/08 01:41:42;;;;;;;9.18;4.07;;;;;;;;;;4948261;28;20118;-70
2024/01/08 01:44:08;;;;;;;6.70;3.17;;;;;;;;;;4927351;29;20039;-70
2024/01/08 01:46:40;;;;;;;7.03;3.95;;;;;;;;;;4923638;29;20043;-70
2024/01/08 01:49:07;;;;;;;7.03;3.88;;;;;;;;;;4924999;29;20396;-70
2024/01/08 01:51:33;;;;;;;6.35;3.95;;;;;;;;;;4945190;29;20043;-70
2024/01/08 01:54:00;;;;;;;9.05;3.92;;;;;;;;;;4930949;29;20070;-70
2024/01/08 01:56:27;;;;;;;5.50;3.65;;;-1.30;99.90;;;;;;4929126;29;20055;-70
2024/01/08 01:58:53;;;;;;;7.38;4.05;;;;;;;;;;4928289;29;20058;-70
2024/01/08 02:01:19;;;;;;;6.07;4.07;;;;;;;;;;4928256;29;20047;-70
2024/01/08 02:03:46;;;;;;;7.47;3.47;;;;;;;;;;4920767;29;20170;-70
2024/01/08 02:06:13;;;;;;;6.70;4.15;;;;;;;;;;4917340;29;20042;-70
2024/01/08 02:08:39;;;;;;;7.03;3.90;;;;;;;;;;4916024;29;20407;-70
2024/01/08 02:11:05;;;;;;;7.00;4.20;;;;;;;;;;4922478;29;20058;-70
2024/01/08 02:13:31;;;;;;;9.02;4.47;;;;;;;;;;4918987;29;20039;-70
2024/01/08 02:15:57;;;;;;;9.27;4.53;;;;;;;;;;4925436;29;20047;-70
2024/01/08 02:18:23;;;;;;;8.13;4.60;;;;;;;;;;4923766;29;20043;-70
2024/01/08 02:20:49;;;;;;;7.28;4.25;;;;;;;;;;4927448;29;20098;-70
2024/01/08 02:23:15;;;;;;;9.18;4.43;;;;;;;;;;4925748;29;20055;-70
2024/01/08 02:25:41;;;;;;;7.88;4.65;;;;;;;;;;4926525;29;20051;-70
2024/01/08 02:28:08;;;;;;;8.82;4.53;;;;;;;;;;4927644;29;20062;-70
2024/01/08 02:30:34;;;;;;;9.38;4.65;;;;;;;;;;4928590;29;20456;-70
2024/01/08 02:33:00;;;;;;;10.02;4.75;;;;;;;;;;4935283;29;20070;-70
2024/01/08 02:35:26;;;;;;;8.38;4.65;;;;;;;;;;4933637;29;20043;-70
2024/01/08 02:37:52;;;;;;;8.52;4.55;;;;;;;;;;4936057;29;20047;-71
2024/01/08 02:40:18;;;;;;;7.22;4.43;;;;;;;;;;4937857;29;20110;-70
2024/01/08 02:42:44;;;;;;;9.10;4.95;;;;;;;;;;4939686;29;20403;-70
2024/01/08 02:45:10;;;;;;;9.40;5.28;;;;;;;;;;4942125;29;20051;-70
2024/01/08 02:47:37;;;;;;;6.97;4.93;;;;;;;;;;4942529;29;20548;-70
2024/01/08 02:50:10;;;;;;;11.82;5.15;;;;;;;;;;4941689;29;20051;-70
2024/01/08 02:52:36;;;;;;;10.40;5.03;;;;;;;;;;4944019;29;20065;-70
2024/01/08 02:55:02;;;;;;;8.02;5.05;;;;;;;;;;4943703;29;20055;-70
2024/01/08 02:57:29;;;;;;;9.43;5.63;;;;;;;;;;4941298;29;20047;-71
2024/01/08 02:59:56;;;;;;;8.55;5.13;;;;;;;;;;4931095;29;20051;-70
2024/01/08 03:02:25;;;;;;;12.10;5.45;;;;;;;;;;4944626;29;20066;-70
2024/01/08 03:04:51;;;;;;;7.22;4.72;;;;;;;;;;4934417;29;20051;-70
2024/01/08 03:07:20;;;;;;;12.05;4.90;;;;;;;;;;4941963;29;20043;-70
2024/01/08 03:09:46;;;;;;;9.88;4.95;;;;;;;;;;4941384;29;20043;-70
2024/01/08 03:12:12;;;;;;;9.30;5.30;;;;;;;;;;4941704;29;20208;-70
2024/01/08 03:14:38;;;;;;;10.40;5.45;;;;;;;;;;4941741;29;20053;-70
2024/01/08 03:17:04;;;;;;;10.57;5.00;;;;;;;;;;4943797;29;20047;-70
2024/01/08 03:19:30;;;;;;;10.13;4.88;;;;;;;;;;4940974;29;20126;-70
2024/01/08 03:21:56;;;;;;;9.13;5.00;;;;;;;;;;4944735;29;20122;-70
2024/01/08 03:24:22;;;;;;;6.88;4.85;;;;;;;;;;4933843;29;20739;-70
2024/01/08 03:26:48;;;;;;;11.70;5.75;;;;;;;;;;4929300;29;20047;-70
2024/01/08 03:29:14;;;;;;;11.13;5.57;;;;;;;;;;4934822;29;20896;-70
2024/01/08 03:31:44;;;;;;;10.82;5.35;;;;;;;;;;4932309;29;20059;-70
2024/01/08 03:34:10;;;;;;;9.18;6.32;;;;;;;;;;4942487;29;20055;-70
2024/01/08 03:36:36;;;;;;;8.82;5.88;;;;;;;;;;4935097;28;20051;-70
2024/01/08 03:39:02;;;;;;;11.02;5.60;;;;;;;;;;4934818;29;20051;-70
2024/01/08 03:41:28;;;;;;;10.25;6.30;;;;;;;;;;4939088;29;20071;-70
2024/01/08 03:43:55;;;;;;;10.73;5.80;;;;;;;;;;4939463;29;20044;-70
2024/01/08 03:46:20;;;;;;;10.93;6.13;;;;;;;;;;4928271;29;20059;-70
2024/01/08 03:48:46;;;;;;;10.25;6.25;;;;;;;;;;4933871;29;20055;-70
2024/01/08 03:51:12;;;;;;;9.15;5.57;;;;;;;;;;4934165;29;20055;-70
2024/01/08 03:53:38;;;;;;;10.60;6.45;;;;;;;;;;4942142;29;20082;-70
2024/01/08 03:56:05;;;;;;;10.52;6.00;;;;;;;;;;4934941;29;20467;-70
2024/01/08 03:58:31;;;;;;;8.95;5.60;;;;;;;;;;4940215;29;20050;-70
2024/01/08 04:00:57;;;;;;;9.65;5.65;;;;;;;;;;4939660;29;20408;-70
2024/01/08 04:03:23;;;;;;;11.18;5.60;;;;;;;;;;4943062;29;20047;-70
2024/01/08 04:05:49;;;;;;;11.02;6.15;;;;;;;;;;4943485;29;20081;-70
2024/01/08 04:08:15;;;;;;;12.13;6.25;;;;;;;;;;4935870;29;20043;-70
2024/01/08 04:10:41;;;;;;;12.00;5.68;;;;;;;;;;4942819;29;20051;-70
2024/01/08 04:13:07;;;;;;;10.07;4.95;;;;;;;;;;4929888;29;20095;-70
2024/01/08 04:15:33;;;;;;;9.82;4.93;;;;;;;;;;4936641;29;20131;-70
2024/01/08 04:17:59;;;;;;;10.35;5.75;;;;;;;;;;4932930;29;20040;-70
2024/01/08 04:20:25;;;;;;;8.75;5.22;;;;;;;;;;4935715;29;20855;-70
2024/01/08 04:22:51;;;;;;;10.13;4.95;;;;;;;;;;4936789;29;20047;-70
2024/01/08 04:25:17;;;;;;;11.00;5.45;;;;;;;;;;4938705;29;20529;-69
2024/01/08 04:27:43;;;;;;;10.02;5.15;;;;;;;;;;4940065;29;20043;-70
2024/01/08 04:30:10;;;;;;;8.52;5.15;;;;;;;;;;4940018;29;20157;-70
2024/01/08 04:32:39;;;;;;;8.57;4.80;;;;;;;;;;4942469;29;20055;-70
2024/01/08 04:35:05;;;;;;;7.93;4.47;;;;;;;;;;4940848;29;20058;-70
2024/01/08 04:37:31;;;;;;;9.25;5.25;;;;;;;;;;4944084;29;20046;-70
2024/01/08 04:39:57;;;;;;;7.50;4.47;;;;;;;;;;4942158;29;20039;-70
2024/01/08 04:42:23;;;;;;;7.25;4.65;;;;;;;;;;4933162;29;20043;-70
2024/01/08 04:44:49;;;;;;;7.80;4.95;;;;;;;;;;4939464;29;20058;-70
2024/01/08 04:47:15;;;;;;;10.45;4.70;;;;;;;;;;4938673;28;20059;-70
2024/01/08 04:49:41;;;;;;;6.97;4.15;;;;;;;;;;4947735;29;20062;-70
2024/01/08 04:52:07;;;;;;;7.97;4.18;;;;;;;;;;4945493;29;20043;-70
2024/01/08 04:54:33;;;;;;;6.57;4.25;;;;;;;;;;4946170;29;20085;-70
2024/01/08 04:56:59;;;;;;;6.22;4.45;;;;;;;;;;4945234;29;20064;-70
2024/01/08 04:59:25;;;;;;;7.20;4.90;;;;;;;;;;4941241;29;20064;-70
2024/01/08 05:01:52;;;;;;;8.20;4.90;;;;;;;;;;4932761;29;20691;-70
2024/01/08 05:04:18;;;;;;;9.02;5.25;;;;;;;;;;4935664;29;20173;-70
2024/01/08 05:06:45;;;;;;;7.78;4.47;;;;;;;;;;4940518;29;20141;-70
2024/01/08 05:09:11;;;;;;;9.65;5.18;;;;;;;;;;4935791;29;20053;-70
2024/01/08 05:11:37;;;;;;;10.68;4.75;;;;;;;;;;4942308;29;20043;-70
2024/01/08 05:14:04;;;;;;;14.90;5.53;;;;;;;;;;4942591;29;20384;-70
2024/01/08 05:16:30;;;;;;;7.43;4.45;;;;;;;;;;4941640;29;20051;-70
2024/01/08 05:18:56;;;;;;;9.18;4.60;;;;;;;;;;4945553;29;20126;-70
2024/01/08 05:21:22;;;;;;;7.95;4.78;;;;;;;;;;4944071;29;20134;-70
2024/01/08 05:23:49;;;;;;;10.23;4.18;;;;;;;;;;4946012;29;20126;-70
2024/01/08 05:26:15;;;;;;;5.70;4.00;;;;;;;;;;4943385;29;20106;-70
2024/01/08 05:28:41;;;;;;;8.05;4.25;;;;;;;;;;4922788;29;20825;-70
2024/01/08 05:31:07;;;;;;;8.90;4.18;;;;;;;;;;4937161;29;20067;-70
2024/01/08 05:33:33;;;;;;;8.63;4.85;;;;;;;;;;4932622;29;20064;-70
2024/01/08 05:35:59;;;;;;;6.97;4.30;;;;;;;;;;4939263;29;20047;-70
2024/01/08 05:38:25;;;;;;;8.57;4.97;;;;;;;;;;4946225;29;20067;-71
2024/01/08 05:40:51;;;;;;;8.32;4.63;;;;;;;;;;4942365;29;20047;-70
2024/01/08 05:43:17;;;;;;;9.55;4.20;;;;;;;;;;4944473;29;20632;-70
2024/01/08 05:45:43;;;;;;;6.15;4.07;;;;;;;;;;4944796;29;20495;-70
2024/01/08 05:48:09;;;;;;;6.03;4.00;;;;;;;;;;4938154;29;20043;-70
2024/01/08 05:50:35;;;;;;;5.88;3.78;;;;;;;;;;4935149;29;20150;-70
2024/01/08 05:53:02;;;;;;;5.60;3.30;;;;;;;;;;4935055;29;20052;-70
2024/01/08 05:55:28;;;;;;;4.32;3.58;;;;;;;;;;4945086;29;20047;-70
2024/01/08 05:57:54;;;;;;;5.53;3.85;;;;;;;;;;4935564;29;20417;-71
2024/01/08 06:00:20;;;;;;;5.22;3.28;;;;;;;;;;4941529;29;20055;-70
2024/01/08 06:02:46;;;;;;;7.10;3.72;;;;;;;;;;4940002;29;20547;-70
2024/01/08 06:05:12;;;;;;;5.63;4.20;;;;;;;;;;4943744;29;20069;-70
2024/01/08 06:07:38;;;;;;;6.38;3.40;;;;;;;;;;4941885;29;20582;-70
2024/01/08 06:10:04;;;;;;;6.78;3.40;;;;;;;;;;4943616;29;20055;-70
2024/01/08 06:12:30;;;;;;;6.13;4.05;;;;;;;;;;4947114;29;20047;-70
2024/01/08 06:14:57;;;;;;;5.40;4.00;;;;;;;;;;4939917;29;20052;-70
2024/01/08 06:17:23;;;;;;;5.70;3.95;;;;;;;;;;4942412;29;20853;-70
2024/01/08 06:19:49;;;;;;;5.93;3.60;;;;;;;;;;4932456;29;20063;-70
2024/01/08 06:22:15;;;;;;;6.03;4.30;;;;;;;;;;4936744;29;20043;-70
2024/01/08 06:24:41;;;;;;;6.30;3.53;;;;;;;;;;4936432;29;20539;-70
2024/01/08 06:27:07;;;;;;;5.20;3.55;;;;;;;;;;4937461;29;20055;-70
2024/01/08 06:29:34;;;;;;;4.57;3.60;;;;;;;;;;4940743;29;20122;-70
2024/01/08 06:32:00;;;;;;;5.18;3.72;;;;;;;;;;4943239;29;20126;-70
2024/01/08 06:34:26;;;;;;;6.28;4.22;;;;;;;;;;4943726;29;20059;-70
2024/01/08 06:36:52;;;;;;;6.70;3.83;;;;;;;;;;4938297;29;20102;-70
2024/01/08 06:39:18;;;;;;;6.22;4.07;;;;;;;;;;4942630;29;20054;-70
2024/01/08 06:41:44;;;;;;;5.80;3.70;;;;;;;;;;4942275;29;20070;-70
2024/01/08 06:44:10;;;;;;;5.20;3.40;;;;;;;;;;4939323;29;20048;-70
2024/01/08 06:46:36;;;;;;;6.00;4.07;;;;;;;;;;4940509;29;20061;-70
2024/01/08 06:49:02;;;;;;;5.63;3.33;;;;;;;;;;4939231;29;20047;-70
2024/01/08 06:51:28;;;;;;;6.43;3.63;;;;;;;;;;4944383;28;20145;-70
2024/01/08 06:53:54;;;;;;;8.35;3.55;;;;;;;;;;4944243;29;20055;-70
2024/01/08 06:56:20;;;;;;;7.78;3.78;;;;;;;;;;4943528;29;20513;-70
2024/01/08 06:58:47;;;;;;;7.47;3.78;;;;;;;;;;4943590;29;20051;-70
2024/01/08 07:01:15;;;;;;;6.65;3.63;;;;;;;;;;4943757;29;20047;-70
2024/01/08 07:03:42;;;;;;;6.90;4.00;;;;;;;;;;4935531;29;20058;-71
2024/01/08 07:06:08;;;;;;;7.00;3.47;;;;;;;;;;4944493;29;20059;-70
2024/01/08 07:08:34;;;;;;;9.93;3.95;;;;;;;;;;4937744;29;20853;-70
2024/01/08 07:11:00;;;;;;;7.25;4.18;;;;;;;;;;4935981;29;20055;-70
2024/01/08 07:13:26;;;;;;;7.93;3.60;;;;;;;;;;4939191;29;20050;-71
2024/01/08 07:15:52;;;;;;;6.50;3.75;;;;;;;;;;4940670;29;20548;-70
2024/01/08 07:18:18;;;;;;;11.05;4.22;;;;;;;;;;4942102;29;20054;-70
2024/01/08 07:20:44;;;;;;;11.45;4.03;;;;;;;;;;4942912;29;20043;-70
2024/01/08 07:23:12;;;;;;;5.55;4.00;;;;;;;;;;4942503;29;20043;-70
2024/01/08 07:25:39;;;;;;;10.50;4.57;;;;;;;;;;4943347;28;20055;-70
2024/01/08 07:28:08;;;;;;;6.75;3.65;;;;;;;;;;4941737;29;20075;-70
2024/01/08 07:30:35;;;;;;;5.30;3.42;;;;;;;;;;4944350;29;20042;-70
2024/01/08 07:33:01;;;;;;;8.90;4.00;;;;;;;;;;4955245;28;20059;-70
2024/01/08 07:35:28;;;;;;;5.80;4.18;;;;;;;;;;4931285;29;20107;-70
2024/01/08 07:37:57;;;;;;;6.25;3.97;;;;;;;;;;4937985;29;20105;-70
2024/01/08 07:40:26;;;;;;;8.70;3.80;;;;;;;;;;4931861;29;20132;-70
2024/01/08 07:42:53;;;;;;;6.53;4.20;;;;;;;;;;4939778;29;20050;-70
2024/01/08 07:45:20;;;;;;;7.47;3.95;;;;;;;;;;4926315;29;20043;-70
2024/01/08 07:47:46;;;;;;;6.13;4.05;;;;;;;;;;4942627;29;20369;-70
2024/01/08 07:50:12;;;;;;;7.65;4.38;;;;;;;;;;4944296;28;20086;-70
2024/01/08 07:52:38;;;;;;;10.75;4.78;;;;;;;;;;4929142;29;20110;-70
2024/01/08 07:55:05;;;;;;;9.20;4.55;;;;;;;;;;4932733;29;20832;-70
2024/01/08 07:57:31;;;;;;;6.45;3.88;;;;;;;;;;4933354;29;20566;-70
2024/01/08 07:59:57;;;;;;;8.40;4.50;;;;;;;;;;4935652;29;20066;-70
2024/01/08 08:02:23;;;;;;;8.02;4.10;;;;;;;;;;4941771;29;20138;-70
2024/01/08 08:04:50;;;;;;;8.73;4.00;;;;;;;;;;4939449;29;20774;-70
2024/01/08 08:07:16;;;;;;;7.57;4.65;;;;;;;;;;4943621;29;20571;-70
2024/01/08 08:09:42;;;;;;;8.65;4.50;;;;;;;;;;4944052;28;20057;-70
2024/01/08 08:12:09;;;;;;;8.75;3.85;;;;;;;;;;4938746;29;20055;-70
2024/01/08 08:14:36;;;;;;;6.82;3.63;;;;;;;;;;4928249;28;20771;-70
2024/01/08 08:17:02;;;;;;;7.10;3.67;;;;;;;;;;4940763;29;20070;-70
2024/01/08 08:19:29;;;;;;;8.68;3.80;;;;;;;;;;4942031;28;20066;-68
2024/01/08 08:21:54;;;;;;;6.40;3.95;;;;;;;;;;4945013;28;20774;-68
2024/01/08 08:24:20;;;;;;;6.80;4.13;;;;;;;;;;4946872;28;20059;-68
2024/01/08 08:26:47;;;;;;;5.00;3.58;;;;;;;;;;4941972;28;20047;-68
2024/01/08 08:29:13;;;;;;;6.30;3.80;;;;;;;;;;4949062;28;20690;-68
2024/01/08 08:31:39;;;;;;;8.27;4.00;;;;;;;;;;4944223;29;20110;-68
2024/01/08 08:34:05;;;;;;;6.15;3.80;;;;;;;;;;4947077;29;20791;-68
2024/01/08 08:36:31;;;;;;;6.40;4.10;;;;;;;;;;4942838;29;20057;-68
2024/01/08 08:38:57;;;;;;;8.05;3.83;;;;;;;;;;4946804;29;20106;-68
2024/01/08 08:41:23;;;;;;;7.65;4.32;;;;;;;;;;4944747;29;20838;-68
2024/01/08 08:43:49;;;;;;;9.13;3.83;;;;;;;;;;4946936;29;20043;-68
2024/01/08 08:46:15;;;;;;;7.30;4.40;;;;;;;;;;4939498;29;20102;-71
2024/01/08 08:48:41;;;;;;;8.27;3.88;;;;;;;;;;4934697;29;20052;-71
2024/01/08 08:51:07;;;;;;;10.20;4.03;;;;;;;;;;4943994;29;20069;-70
2024/01/08 08:53:33;;;;;;;7.47;3.80;;;;;;;;;;4945414;29;20435;-68
2024/01/08 08:56:00;;;;;;;6.82;3.90;;;;;;;;;;4940995;29;20051;-68
2024/01/08 08:58:28;;;;;;;6.18;3.97;;;;;;;;;;4946427;29;20381;-68
2024/01/08 09:00:54;;;;;;;5.97;4.20;;;;;;;;;;4944171;29;20051;-69
2024/01/08 09:03:20;;;;;;;5.50;3.60;;;;;;;;;;4942310;29;20063;-70
2024/01/08 09:05:46;;;;;;;4.22;3.13;;;;;;;;;;4939860;28;20088;-70
2024/01/08 09:08:12;;;;;;;10.98;4.10;;;;;;;;;;4945015;28;20125;-70
2024/01/08 09:10:38;;;;;;;8.30;4.07;;;;;;;;;;4945139;29;20178;-70
2024/01/08 09:13:04;;;;;;;7.15;3.58;;;;;;;;;;4938387;29;20055;-70
2024/01/08 09:15:30;;;;;;;7.22;4.55;;;;;;;;;;4941456;29;20054;-70
2024/01/08 09:17:56;;;;;;;8.45;3.90;;;;;;;;;;4938499;29;20292;-70
2024/01/08 09:20:23;;;;;;;7.00;3.30;;;;;;;;;;4939073;29;20081;-70
2024/01/08 09:22:49;;;;;;;4.10;3.38;;;;;;;;;;4944852;29;20050;-70
2024/01/08 09:25:15;;;;;;;9.65;3.03;;;;;;;;;;4937434;28;20043;-70
2024/01/08 09:27:42;;;;;;;5.63;2.85;;;;;;;;;;4943786;29;20094;-70
2024/01/08 09:30:09;;;;;;;6.45;2.72;;;;;;;;;;4934836;29;20538;-70
2024/01/08 09:32:35;;;;;;;7.47;2.90;;;;;;;;;;4944675;28;20063;-69
2024/01/08 09:35:00;;;;;;;7.32;3.55;;;;;;;;;;4937250;29;20048;-70
2024/01/08 09:37:26;;;;;;;6.93;3.20;;;;;;;;;;4942891;29;20055;-70
2024/01/08 09:39:53;;;;;;;7.78;3.65;;;;;;;;;;4944690;29;20047;-70
2024/01/08 09:42:21;;;;;;;7.45;3.00;;;;;;;;;;4943337;29;20574;-70
2024/01/08 09:44:47;;;;;;;7.88;3.60;;;;;;;;;;4944967;29;20826;-70
2024/01/08 09:47:15;;;;;;;5.45;3.47;;;;;;;;;;4944128;29;20047;-70
2024/01/08 09:49:42;;;;;;;7.10;3.90;;;;;;;;;;4946222;28;20050;-70
2024/01/08 09:52:09;;;;;;;4.68;3.25;;;;;;;;;;4943416;29;20566;-69
2024/01/08 09:54:36;;;;;;;8.52;3.92;;;;;;;;;;4944974;29;20376;-70
2024/01/08 09:57:03;;;;;;;6.38;3.40;;;;;;;;;;4939294;29;20055;-70
2024/01/08 09:59:29;;;;;;;7.68;2.92;;;;;;;;;;4942209;29;20075;-70
2024/01/08 10:01:56;;;;;;;5.50;2.90;;;;;;;;;;4944392;29;20039;-70
2024/01/08 10:04:26;;;;;;;6.22;2.60;;;;;;;;;;4925338;29;20759;-70
2024/01/08 10:07:06;;;;;;;7.35;3.55;;;;;;;;;;4944254;29;20047;-70
2024/01/08 10:09:32;;;;;;;8.27;2.97;;;;;;;;;;4941476;29;20589;-70
2024/01/08 10:11:58;;;;;;;4.78;3.38;;;;;;;;;;4941313;29;20047;-70
2024/01/08 10:14:28;;;;;;;5.65;2.88;;;;;;;;;;4944701;29;20435;-71
2024/01/08 10:16:55;;;;;;;4.00;2.78;;;;;;;;;;4941092;29;20045;-70
2024/01/08 10:19:23;;;;;;;5.28;3.10;;;;;;;;;;4944377;29;20047;-70
2024/01/08 10:22:08;;;;;;;8.18;3.03;;;;;;;;;;4941790;29;20419;-70
2024/01/08 10:24:34;;;;;;;5.75;3.50;;;;;;;;;;4940052;29;20040;-70
2024/01/08 10:27:00;;;;;;;5.18;3.50;;;;;;;;;;4943863;29;20051;-70
2024/01/08 10:29:26;;;;;;;7.97;3.50;;;;;;;;;;4944544;29;20062;-70
2024/01/08 10:31:52;;;;;;;4.93;2.58;;;;;;;;;;4940813;29;20051;-71
2024/01/08 10:34:19;;;;;;;4.50;2.92;;;;;;;;;;4944988;29;20047;-70
2024/01/08 10:36:45;;;;;;;6.00;3.20;;;;;;;;;;4942327;29;20763;-70
2024/01/08 10:39:12;;;;;;;5.72;2.75;;;;;;;;;;4941262;29;20047;-70
2024/01/08 10:41:38;;;;;;;4.32;2.92;;;;;;;;;;4938541;29;20071;-70
2024/01/08 10:44:04;;;;;;;7.40;3.03;;;;;;;;;;4941608;28;20102;-70
2024/01/08 10:46:37;;;;;;;7.97;3.15;;;;;;;;;;4943579;29;20407;-70
2024/01/08 10:49:04;;;;;;;4.45;3.17;;;;;;;;;;4937958;29;20051;-70
2024/01/08 10:51:32;;;;;;;6.00;3.15;;;;;;;;;;4944020;29;20047;-71
2024/01/08 10:53:58;;;;;;;6.22;2.60;;;;;;;;;;4940860;29;20054;-71
2024/01/08 10:56:26;;;;;;;5.03;3.20;;;;;;;;;;4940249;29;20102;-70
2024/01/08 10:58:52;;;;;;;5.78;3.13;;;;;;;;;;4940444;29;20054;-70
2024/01/08 11:01:18;;;;;;;5.13;3.05;;;;;;;;;;4942777;29;20050;-70
2024/01/08 11:03:46;;;;;;;3.53;2.75;;;;;;;;;;4926484;29;20142;-70
2024/01/08 11:06:13;;;;;;;4.72;2.78;;;;;;;;;;4942733;29;20070;-71
2024/01/08 11:08:42;;;;;;;5.15;2.85;;;;;;;;;;4940093;29;20475;-71
2024/01/08 11:11:09;;;;;;;6.18;3.20;;;;;;;;;;4942089;29;20051;-70
2024/01/08 11:13:36;;;;;;;3.33;2.78;;;;;;;;;;4943424;28;20051;-71
2024/01/08 11:16:14;;;;;;;5.70;3.58;;;;;;;;;;5108676;27;20472;-71
2024/01/08 11:18:40;;;;;;;8.70;2.83;;;;;;;;;;5103265;28;20158;-71
2024/01/08 11:21:06;;;;;;;6.97;3.13;;;;;;;;;;5099512;28;20043;-71
2024/01/08 11:23:40;;;;;;;4.07;3.50;;;0.30;99.90;;;;;;5097867;28;20128;-71
2024/01/08 11:26:25;;;;;;;4.95;2.80;;;0.40;99.90;;;;;;5099473;28;20035;-71
2024/01/08 11:29:02;;;;;;;7.60;3.35;;;;;;;;;;5093374;28;20119;-71
2024/01/08 11:31:44;;;;;;;6.00;3.63;;;;;;;;;;5097073;28;20055;-71
2024/01/08 11:34:13;;;;;;;6.03;2.72;;;;;;;;;;5099684;28;20360;-71
2024/01/08 11:36:47;;;;;;;4.38;3.10;;;;;;;;;;5098251;28;20044;-70
2024/01/08 11:39:16;;;;;;;6.60;3.45;;;;;;;;;;5097037;28;20036;-70
2024/01/08 11:41:42;;;;;;;4.95;3.00;;;;;;;;;;5099670;28;20092;-71
2024/01/08 11:44:09;;;;;;;5.15;3.15;;;;;;;;;;5097284;28;20166;-71
2024/01/08 11:46:35;;;;;;;4.53;3.17;;;;;;;;;;5096418;28;20055;-71
2024/01/08 11:49:04;;;;;;;5.10;3.40;;;;;;;;;;5096142;28;20120;-71
2024/01/08 11:51:30;;;;;;;6.22;2.92;;;;;;;;;;5096881;28;20572;-71
2024/01/08 11:53:57;;;;;;;6.10;3.40;;;;;;;;;;5096748;28;20123;-71
2024/01/08 11:56:24;;;;;;;5.28;2.88;;;;;;;;;;5098451;28;20105;-71
2024/01/08 11:58:50;;;;;;;4.97;3.25;;;;;;;;;;5082314;28;20093;-71
2024/01/08 12:01:17;;;;;;;4.65;3.25;;;;;;;;;;5095386;28;20043;-71
2024/01/08 12:03:43;;;;;;;4.63;3.13;;;;;;;;;;5097352;28;20040;-72
2024/01/08 12:06:09;;;;;;;6.55;3.10;;;;;;;;;;5097391;28;20035;-73
2024/01/08 12:08:35;;;;;;;9.25;3.63;;;;;;;;;;5097797;28;20134;-71
2024/01/08 12:11:02;;;;;;;4.32;2.75;;;;;;;;;;5097101;28;20120;-73
2024/01/08 12:13:28;;;;;;;8.40;2.83;;;;;;;;;;5102470;28;20050;-72
2024/01/08 12:15:54;;;;;;;7.70;3.63;;;;;;;;;;5094931;28;20056;-71
2024/01/08 12:18:20;;;;;;;5.72;3.28;;;;;;;;;;5097689;28;20039;-71
2024/01/08 12:20:46;;;;;;;5.32;3.00;;;;;;;;;;5080615;28;20695;-71
2024/01/08 12:23:12;;;;;;;4.65;2.97;;;;;;;;;;5097453;28;20047;-71
2024/01/08 12:25:38;;;;;;;14.77;3.78;;;;;;;;;;5095699;28;20043;-73
2024/01/08 12:28:04;;;;;;;6.22;3.10;;;;;;;;;;5083621;28;20040;-73
2024/01/08 12:30:31;;;;;;;3.85;2.40;;;;;;;;;;5083496;28;20094;-72
2024/01/08 12:32:57;;;;;;;4.50;2.63;;;;;;;;;;5083579;28;20746;-73
2024/01/08 12:35:23;;;;;;;3.97;3.20;;;;;;;;;;5082895;28;20071;-73
2024/01/08 12:37:50;;;;;;;6.25;2.72;;;;;;;;;;5083842;28;20036;-73
2024/01/08 12:40:16;;;;;;;4.38;3.28;;;;;;;;;;5083090;28;20402;-73
2024/01/08 12:42:46;;;;;;;4.72;3.40;;;;;;;;;;5083461;28;20055;-73
2024/01/08 12:45:12;;;;;;;6.10;3.38;;;;;;;;;;5093570;28;20051;-73
2024/01/08 12:47:38;;;;;;;4.95;3.25;;;;;;;;;;5090674;28;20831;-73
2024/01/08 12:50:05;;;;;;;6.68;2.70;;;;;;;;;;5085959;28;20062;-73
2024/01/08 12:52:31;;;;;;;5.55;3.20;;;;;;;;;;5086211;28;20043;-73
2024/01/08 12:54:57;;;;;;;4.90;3.30;;;;;;;;;;5088597;28;20059;-73
2024/01/08 12:57:28;;;;;;;3.63;2.85;;;;;;;;;;5091337;28;20055;-73
2024/01/08 12:59:55;;;;;;;4.72;2.88;;;;;;;;;;5087563;28;20051;-73
2024/01/08 13:02:31;;;;;;;4.57;2.63;;;;;;;;;;5088369;28;20498;-73
2024/01/08 13:04:57;;;;;;;3.60;2.75;;;;;;;;;;5082532;28;20048;-73
2024/01/08 13:07:24;;;;;;;5.05;3.38;;;;;;;;;;5085143;28;20191;-73
2024/01/08 13:09:50;;;;;;;3.72;2.83;;;;;;;;;;5066900;28;20051;-73
2024/01/08 13:12:17;;;;;;;6.07;2.78;;;;;;;;;;5085568;28;20047;-73
2024/01/08 13:14:43;;;;;;;3.97;2.88;;;;;;;;;;5083025;28;20131;-73
2024/01/08 13:17:09;;;;;;;4.63;3.83;;;;;;;;;;5092663;28;20042;-73
2024/01/08 13:19:35;;;;;;;3.95;2.65;;;;;;;;;;5093486;28;20043;-73
2024/01/08 13:22:04;;;;;;;5.30;2.83;;;;;;;;;;5089371;28;20040;-73
2024/01/08 13:24:30;;;;;;;4.90;3.35;;;;;;;;;;5085900;28;20093;-73
2024/01/08 13:26:58;;;;;;;4.05;2.63;;;;;;;;;;5088857;28;20047;-73
2024/01/08 13:29:24;;;;;;;7.25;3.35;;;;;;;;;;5084827;28;20852;-73
2024/01/08 13:31:50;;;;;;;4.75;3.10;;;;;;;;;;5081502;28;20383;-73
2024/01/08 13:34:16;;;;;;;5.28;2.70;;;;;;;;;;5082502;28;20099;-73
2024/01/08 13:36:42;;;;;;;6.85;2.90;;;;;;;;;;5083104;28;20944;-73
2024/01/08 13:39:08;;;;;;;6.15;3.47;;;;;;;;;;5088661;28;20040;-73
2024/01/08 13:41:37;;;;;;;7.07;3.60;;;;;;;;;;5089061;28;20101;-74
2024/01/08 13:44:03;;;;;;;8.05;3.03;;;;;;;;;;5085826;28;20043;-74
2024/01/08 13:46:29;;;;;;;7.20;3.75;;;;;;;;;;5082200;28;20469;-74
2024/01/08 13:48:55;;;;;;;3.80;2.85;;;;;;;;;;5085999;28;20169;-73
2024/01/08 13:51:21;;;;;;;5.78;4.03;;;;;;;;;;5083242;28;20451;-72
2024/01/08 13:53:47;;;;;;;4.35;2.92;;;;;;;;;;5082775;28;20036;-72
2024/01/08 13:56:13;;;;;;;4.53;2.53;;;;;;;;;;5084130;28;20047;-71
2024/01/08 13:58:40;;;;;;;4.75;3.30;;;;;;;;;;5083286;28;20118;-72
2024/01/08 14:01:07;;;;;;;5.50;3.72;;;;;;;;;;5082783;28;20072;-71
2024/01/08 14:03:34;;;;;;;7.03;3.47;;;;;;;;;;5081626;28;20062;-72
2024/01/08 14:06:00;;;;;;;5.38;3.75;;;;;;;;;;5082840;28;20052;-71
2024/01/08 14:08:26;;;;;;;4.70;2.83;;;;;;;;;;5082765;28;20066;-72
2024/01/08 14:10:52;;;;;;;4.65;3.20;;;;;;;;;;5083044;28;20048;-72
2024/01/08 14:13:19;;;;;;;5.60;3.63;;;;;;;;;;5068093;28;20074;-72
2024/01/08 14:15:45;;;;;;;6.55;3.50;;;;;;;;;;5081302;28;20060;-72
2024/01/08 14:18:11;;;;;;;5.47;3.80;;;;;;;;;;5086109;28;20047;-72
2024/01/08 14:20:37;;;;;;;6.40;3.28;;;;;;;;;;5082700;28;20119;-72
2024/01/08 14:23:03;;;;;;;8.15;3.80;;;;;;;;;;5081281;28;20046;-72
2024/01/08 14:25:30;;;;;;;4.90;3.58;;;;;;;;;;5082735;28;20135;-73
2024/01/08 14:27:57;;;;;;;5.10;3.38;;;;;;;;;;5081411;28;20047;-73
2024/01/08 14:30:23;;;;;;;6.28;3.47;;;;;;;;;;5086686;28;20039;-73
2024/01/08 14:32:49;;;;;;;7.07;3.95;;;;;;;;;;5083622;28;20047;-72
2024/01/08 14:35:15;;;;;;;5.78;2.95;;;;;;;;;;5082442;28;20469;-73
2024/01/08 14:37:42;;;;;;;7.90;3.40;;;;;;;;;;5082467;28;20108;-73